LICR

Reggio Calabria Airport

Reggio Calabria, Italy
TAF LICR 211700Z 2118/2218 20008KT 9999 SCT025 BECMG 2210/2212 36010KT
Issued Valid From Valid To
Sep-21 @ 17:00 UTC
(10 hours ago)
Sep-21 @ 18:00 UTC
(9 hours ago)
Sep-22 @ 18:00 UTC
(in 15 hours)
to
to
TAF LICR 211700Z 2118/2218 20008KT 9999 SCT025 BECMG 2210/2212 36010KT
Issued Sep-21 @ 17:00 UTC
(10 hours ago)
Valid From Sep-21 @ 18:00 UTC
(9 hours ago)
Valid To Sep-22 @ 18:00 UTC
(in 15 hours)
-
-